createdAt,value
2023-04-10T00:00:16.778Z,69.65
2023-04-10T00:02:49.640Z,69.70
2023-04-10T00:05:22.602Z,69.80
2023-04-10T00:07:55.286Z,69.46
2023-04-10T00:10:30.484Z,69.77
2023-04-10T00:13:04.745Z,69.83
2023-04-10T00:15:38.797Z,69.91
2023-04-10T00:18:11.642Z,69.69
2023-04-10T00:20:44.355Z,69.62
2023-04-10T00:23:17.054Z,69.87
2023-04-10T00:25:49.959Z,69.90
2023-04-10T00:28:22.639Z,69.71
2023-04-10T00:30:56.791Z,69.63
2023-04-10T00:33:29.546Z,69.75
2023-04-10T00:36:02.193Z,69.70
2023-04-10T00:38:35.385Z,70.08
2023-04-10T00:41:08.283Z,70.19
2023-04-10T00:43:41.150Z,70.38
2023-04-10T00:46:15.353Z,70.33
2023-04-10T00:48:48.470Z,70.11
2023-04-10T00:51:21.692Z,70.08
2023-04-10T00:53:55.150Z,70.00
2023-04-10T00:56:28.216Z,70.02
2023-04-10T00:59:04.052Z,70.12
2023-04-10T01:01:39.570Z,70.01
2023-04-10T01:04:13.230Z,70.25
2023-04-10T01:06:54.036Z,70.24
2023-04-10T01:09:34.173Z,70.01
2023-04-10T01:12:12.809Z,70.11
2023-04-10T01:14:50.486Z,70.34
2023-04-10T01:17:29.724Z,69.93
2023-04-10T01:20:05.653Z,70.17
2023-04-10T01:22:42.923Z,70.41
2023-04-10T01:25:31.428Z,70.20
2023-04-10T01:28:09.328Z,70.15
2023-04-10T01:30:44.921Z,70.07
2023-04-10T01:33:19.064Z,70.32
2023-04-10T01:35:53.630Z,70.35
2023-04-10T01:38:27.777Z,70.41
2023-04-10T01:41:01.536Z,70.36
2023-04-10T01:43:34.845Z,70.13
2023-04-10T01:46:09.274Z,70.16
2023-04-10T01:48:42.736Z,70.05
2023-04-10T01:51:16.167Z,69.94
2023-04-10T01:53:49.227Z,70.22
2023-04-10T01:56:22.019Z,70.31
2023-04-10T01:58:54.840Z,70.14
2023-04-10T02:01:30.265Z,70.06
2023-04-10T02:04:03.369Z,70.23
2023-04-10T02:06:42.377Z,70.09
2023-04-10T02:09:19.956Z,69.96
2023-04-10T02:11:55.885Z,70.18
2023-04-10T02:14:29.576Z,69.79
2023-04-10T02:17:03.912Z,70.12
2023-04-10T02:19:36.854Z,69.90
2023-04-10T02:22:09.597Z,69.93
2023-04-10T02:24:42.248Z,70.01
2023-04-10T02:27:14.893Z,70.10
2023-04-10T02:29:47.612Z,69.98
2023-04-10T02:32:21.752Z,70.15
2023-04-10T02:34:54.509Z,69.81
2023-04-10T02:37:27.367Z,70.06
2023-04-10T02:39:59.981Z,70.05
2023-04-10T02:42:32.815Z,69.96
2023-04-10T02:45:06.449Z,69.90
2023-04-10T02:47:41.027Z,69.95
2023-04-10T02:50:13.686Z,70.19
2023-04-10T02:52:46.387Z,69.92
2023-04-10T02:55:19.013Z,70.09
2023-04-10T02:57:51.929Z,70.17
2023-04-10T03:00:24.702Z,70.25
2023-04-10T03:02:59.020Z,70.29
2023-04-10T03:05:31.977Z,70.47
2023-04-10T03:08:04.950Z,70.35
2023-04-10T03:10:37.629Z,70.40
2023-04-10T03:13:10.527Z,70.55
2023-04-10T03:15:43.580Z,70.54
2023-04-10T03:18:17.801Z,70.57
2023-04-10T03:20:51.300Z,70.53
2023-04-10T03:23:24.021Z,70.60
2023-04-10T03:25:56.817Z,70.72
2023-04-10T03:28:29.793Z,70.67
2023-04-10T03:31:02.886Z,70.76
2023-04-10T03:33:37.154Z,70.58
2023-04-10T03:36:10.289Z,70.74
2023-04-10T03:38:43.006Z,70.51
2023-04-10T03:41:15.650Z,70.47
2023-04-10T03:43:48.337Z,70.62
2023-04-10T03:46:22.720Z,70.55
2023-04-10T03:48:56.958Z,70.85
2023-04-10T03:51:29.667Z,70.70
2023-04-10T03:54:02.439Z,70.90
2023-04-10T03:56:35.148Z,70.81
2023-04-10T03:59:07.906Z,70.93
2023-04-10T04:01:40.642Z,70.95
2023-04-10T04:04:14.949Z,71.05
2023-04-10T04:06:48.724Z,71.06
2023-04-10T04:09:22.159Z,70.95
2023-04-10T04:11:54.887Z,71.09
2023-04-10T04:14:27.655Z,70.99
2023-04-10T04:17:00.666Z,71.31
2023-04-10T04:19:34.868Z,71.19
2023-04-10T04:22:07.861Z,71.27
2023-04-10T04:24:41.102Z,70.98
2023-04-10T04:27:13.841Z,71.24
2023-04-10T04:29:46.720Z,71.04
2023-04-10T04:32:19.488Z,71.25
2023-04-10T04:34:53.586Z,71.18
2023-04-10T04:37:26.275Z,71.05
2023-04-10T04:39:58.978Z,71.18
2023-04-10T04:42:32.007Z,71.26
2023-04-10T04:45:04.854Z,71.43
2023-04-10T04:47:37.482Z,71.31
2023-04-10T04:50:11.887Z,71.22
2023-04-10T04:52:44.691Z,71.30
2023-04-10T04:55:17.432Z,71.29
2023-04-10T04:57:50.156Z,71.08
2023-04-10T05:00:22.895Z,71.50
2023-04-10T05:02:55.693Z,71.53
2023-04-10T05:05:29.866Z,71.38
2023-04-10T05:08:02.587Z,71.81
2023-04-10T05:10:35.528Z,71.40
2023-04-10T05:13:08.165Z,71.71
2023-04-10T05:15:40.916Z,71.71
2023-04-10T05:18:14.187Z,71.77
2023-04-10T05:20:48.816Z,71.76
2023-04-10T05:23:21.615Z,71.93
2023-04-10T05:25:54.323Z,71.82
2023-04-10T05:28:27.276Z,71.97
2023-04-10T05:31:00.063Z,72.13
2023-04-10T05:33:32.790Z,72.11
2023-04-10T05:36:08.044Z,72.41
2023-04-10T05:38:40.715Z,72.37
2023-04-10T05:41:13.434Z,73.03
2023-04-10T05:43:46.078Z,73.50
2023-04-10T05:46:19.332Z,73.32
2023-04-10T05:48:52.410Z,74.19
2023-04-10T05:51:27.248Z,74.00
2023-04-10T05:53:59.897Z,74.19
2023-04-10T05:56:32.791Z,74.62
2023-04-10T05:59:06.566Z,74.73
2023-04-10T06:01:39.295Z,74.71
2023-04-10T06:04:12.162Z,75.06
2023-04-10T06:06:46.435Z,75.34
2023-04-10T06:09:19.082Z,75.37
2023-04-10T06:11:52.068Z,74.90
2023-04-10T06:14:24.778Z,74.80
2023-04-10T06:16:57.772Z,74.68
2023-04-10T06:19:30.373Z,74.87
2023-04-10T06:22:04.504Z,74.67
2023-04-10T06:24:37.137Z,75.20
2023-04-10T06:27:10.183Z,74.94
2023-04-10T06:29:42.809Z,74.81
2023-04-10T06:32:15.536Z,73.97
2023-04-10T06:34:48.196Z,74.37
2023-04-10T06:37:28.288Z,73.68
2023-04-10T06:40:05.377Z,73.68
2023-04-10T06:42:38.528Z,73.97
2023-04-10T06:45:11.633Z,73.76
2023-04-10T06:47:44.674Z,73.54
2023-04-10T06:50:17.383Z,73.93
2023-04-10T06:52:53.362Z,73.71
2023-04-10T06:55:26.131Z,73.93
2023-04-10T06:57:58.931Z,73.95
2023-04-10T07:00:31.858Z,73.97
2023-04-10T07:03:04.803Z,73.33
2023-04-10T07:05:38.635Z,73.17
2023-04-10T07:08:14.319Z,73.22
2023-04-10T07:10:46.954Z,73.36
2023-04-10T07:13:19.605Z,73.59
2023-04-10T07:15:52.472Z,73.59
2023-04-10T07:18:25.323Z,74.07
2023-04-10T07:20:58.010Z,74.18
2023-04-10T07:23:32.344Z,74.37
2023-04-10T07:26:05.249Z,73.91
2023-04-10T07:28:38.384Z,74.35
2023-04-10T07:31:11.090Z,74.20
2023-04-10T07:33:43.777Z,74.34
2023-04-10T07:36:16.763Z,73.79
2023-04-10T07:38:51.370Z,73.81
2023-04-10T07:41:24.157Z,72.66
2023-04-10T07:43:56.902Z,72.57
2023-04-10T07:46:29.636Z,73.19
2023-04-10T07:49:03.103Z,72.56
2023-04-10T07:51:36.207Z,73.25
2023-04-10T07:54:10.607Z,71.30
2023-04-10T07:56:43.774Z,72.74
2023-04-10T07:59:16.528Z,72.79
2023-04-10T08:01:49.263Z,71.91
2023-04-10T08:04:22.477Z,72.31
2023-04-10T08:06:55.250Z,70.97
2023-04-10T08:09:29.423Z,70.30
2023-04-10T08:12:02.255Z,70.19
2023-04-10T08:14:34.969Z,70.96
2023-04-10T08:17:14.474Z,72.63
2023-04-10T08:19:47.186Z,69.75
2023-04-10T08:22:19.856Z,71.64
2023-04-10T08:24:53.984Z,70.17
2023-04-10T08:27:26.617Z,67.76
2023-04-10T08:29:59.630Z,69.18
2023-04-10T08:32:32.450Z,70.59
2023-04-10T08:35:05.511Z,71.70
2023-04-10T08:37:38.619Z,69.60
2023-04-10T08:40:13.763Z,67.53
2023-04-10T08:42:46.440Z,69.16
2023-04-10T08:45:19.288Z,68.17
2023-04-10T08:47:53.343Z,68.57
2023-04-10T08:50:26.265Z,68.01
2023-04-10T08:53:01.334Z,67.39
2023-04-10T08:55:36.031Z,68.91
2023-04-10T08:58:09.174Z,65.78
2023-04-10T09:00:41.900Z,68.63
2023-04-10T09:03:17.626Z,65.56
2023-04-10T09:05:50.370Z,67.63
2023-04-10T09:08:23.027Z,69.15
2023-04-10T09:10:57.249Z,68.62
2023-04-10T09:13:36.974Z,70.92
2023-04-10T09:16:10.629Z,69.95
2023-04-10T09:18:47.253Z,66.87
2023-04-10T09:21:21.144Z,71.01
2023-04-10T09:24:01.856Z,67.32
2023-04-10T09:26:36.039Z,69.18
2023-04-10T09:29:11.049Z,67.35
2023-04-10T09:31:44.441Z,68.77
2023-04-10T09:34:18.103Z,67.28
2023-04-10T09:36:55.143Z,68.73
2023-04-10T09:39:34.348Z,64.45
2023-04-10T09:42:08.564Z,62.77
2023-04-10T09:44:41.758Z,66.64
2023-04-10T09:47:18.677Z,66.08
2023-04-10T09:49:52.870Z,63.95
2023-04-10T09:52:27.502Z,62.74
2023-04-10T09:55:01.040Z,68.62
2023-04-10T09:57:35.586Z,67.21
2023-04-10T10:00:09.542Z,63.63
2023-04-10T10:02:42.726Z,65.46
2023-04-10T10:05:15.760Z,65.28
2023-04-10T10:07:48.621Z,65.69
2023-04-10T10:10:21.659Z,62.44
2023-04-10T10:12:58.467Z,65.05
2023-04-10T10:15:36.047Z,65.68
2023-04-10T10:18:12.281Z,65.49
2023-04-10T10:20:46.476Z,64.66
2023-04-10T10:23:20.666Z,65.87
2023-04-10T10:25:53.770Z,67.15
2023-04-10T10:28:29.218Z,68.69
2023-04-10T10:31:02.456Z,69.43
2023-04-10T10:33:37.785Z,68.43
2023-04-10T10:36:11.483Z,67.49
2023-04-10T10:38:49.264Z,69.86
2023-04-10T10:41:26.413Z,71.27
2023-04-10T10:44:07.922Z,64.47
2023-04-10T10:46:43.588Z,66.03
2023-04-10T10:49:16.313Z,59.17
2023-04-10T10:51:49.776Z,66.63
2023-04-10T10:54:29.035Z,66.40
2023-04-10T10:57:02.611Z,63.72
2023-04-10T10:59:53.722Z,65.54
2023-04-10T11:02:27.970Z,66.71
2023-04-10T11:05:00.970Z,67.01
2023-04-10T11:07:48.491Z,65.28
2023-04-10T11:10:41.586Z,64.12
2023-04-10T11:13:18.147Z,68.15
2023-04-10T11:15:52.758Z,64.00
2023-04-10T11:18:40.540Z,64.85
2023-04-10T11:21:15.054Z,64.44
2023-04-10T11:24:04.057Z,67.88
2023-04-10T11:26:41.835Z,69.54
2023-04-10T11:29:33.526Z,68.45
2023-04-10T11:32:06.323Z,66.83
2023-04-10T11:34:44.844Z,65.72
2023-04-10T11:37:24.980Z,67.77
2023-04-10T11:40:04.611Z,70.48
2023-04-10T11:42:38.008Z,69.79
2023-04-10T11:45:26.763Z,69.36
2023-04-10T11:47:59.488Z,69.45
2023-04-10T11:50:36.073Z,71.60
2023-04-10T11:53:20.367Z,69.42
2023-04-10T11:55:53.005Z,70.47
2023-04-10T11:58:26.528Z,68.77
2023-04-10T12:00:59.913Z,70.42
2023-04-10T12:03:36.287Z,67.59
2023-04-10T12:06:11.602Z,69.17
2023-04-10T12:08:47.800Z,70.72
2023-04-10T12:11:21.464Z,67.80
2023-04-10T12:13:54.812Z,66.99
2023-04-10T12:16:27.862Z,71.61
2023-04-10T12:19:01.009Z,68.19
2023-04-10T12:21:34.310Z,69.85
2023-04-10T12:24:08.495Z,72.52
2023-04-10T12:26:48.293Z,63.07
2023-04-10T12:29:20.972Z,64.24
2023-04-10T12:31:53.618Z,67.80
2023-04-10T12:34:26.664Z,65.24
2023-04-10T12:36:59.269Z,69.09
2023-04-10T12:39:33.421Z,69.33
2023-04-10T12:42:13.341Z,70.96
2023-04-10T12:44:52.778Z,70.12
2023-04-10T12:47:26.382Z,63.12
2023-04-10T12:50:08.328Z,67.40
2023-04-10T12:52:41.770Z,70.59
2023-04-10T12:55:17.022Z,71.89
2023-04-10T12:57:51.751Z,71.02
2023-04-10T13:00:25.090Z,71.71
2023-04-10T13:02:57.963Z,69.80
2023-04-10T13:05:31.194Z,64.01
2023-04-10T13:08:03.823Z,69.03
2023-04-10T13:10:38.415Z,70.29
2023-04-10T13:13:13.071Z,71.84
2023-04-10T13:15:45.713Z,72.33
2023-04-10T13:18:18.506Z,73.23
2023-04-10T13:20:51.469Z,73.44
2023-04-10T13:23:24.112Z,71.89
2023-04-10T13:26:00.989Z,69.38
2023-04-10T13:28:33.587Z,68.26
2023-04-10T13:31:06.281Z,67.89
2023-04-10T13:33:39.003Z,69.29
2023-04-10T13:36:12.086Z,71.57
2023-04-10T13:38:44.833Z,70.89
2023-04-10T13:41:18.983Z,70.90
2023-04-10T13:43:51.752Z,69.68
2023-04-10T13:46:24.605Z,69.95
2023-04-10T13:48:58.313Z,74.87
2023-04-10T13:51:31.757Z,67.71
2023-04-10T13:54:04.995Z,68.60
2023-04-10T13:56:39.231Z,68.11
2023-04-10T13:59:12.066Z,67.19
2023-04-10T14:01:44.752Z,66.62
2023-04-10T14:04:17.426Z,69.62
2023-04-10T14:06:51.630Z,69.93
2023-04-10T14:09:24.623Z,71.21
2023-04-10T14:11:59.059Z,70.17
2023-04-10T14:14:31.763Z,68.73
2023-04-10T14:17:04.481Z,65.15
2023-04-10T14:19:39.044Z,68.93
2023-04-10T14:22:11.738Z,70.16
2023-04-10T14:24:44.502Z,71.39
2023-04-10T14:27:18.569Z,69.26
2023-04-10T14:29:55.018Z,69.19
2023-04-10T14:32:27.933Z,68.81
2023-04-10T14:35:00.696Z,69.46
2023-04-10T14:37:33.512Z,68.53
2023-04-10T14:40:06.819Z,69.23
2023-04-10T14:42:40.983Z,72.36
2023-04-10T14:45:13.816Z,67.76
2023-04-10T14:47:47.520Z,69.24
2023-04-10T14:50:20.476Z,70.71
2023-04-10T14:52:53.195Z,64.71
2023-04-10T14:55:25.891Z,65.28
2023-04-10T14:58:00.035Z,69.01
2023-04-10T15:00:33.330Z,66.38
2023-04-10T15:03:06.751Z,63.65
2023-04-10T15:05:39.481Z,65.83
2023-04-10T15:08:12.265Z,66.70
2023-04-10T15:10:44.950Z,68.99
2023-04-10T15:13:19.742Z,67.80
2023-04-10T15:15:52.409Z,67.72
2023-04-10T15:18:25.607Z,67.65
2023-04-10T15:20:58.359Z,67.64
2023-04-10T15:23:31.188Z,69.09
2023-04-10T15:26:03.876Z,69.33
2023-04-10T15:28:38.308Z,69.20
2023-04-10T15:31:11.543Z,69.08
2023-04-10T15:33:44.497Z,70.21
2023-04-10T15:36:17.206Z,69.87
2023-04-10T15:38:50.270Z,70.53
2023-04-10T15:41:23.347Z,69.72
2023-04-10T15:43:57.671Z,69.49
2023-04-10T15:46:32.521Z,69.02
2023-04-10T15:49:05.426Z,70.46
2023-04-10T15:51:38.252Z,68.56
2023-04-10T15:54:11.259Z,68.87
2023-04-10T15:56:43.934Z,68.62
2023-04-10T15:59:18.593Z,68.97
2023-04-10T16:01:51.760Z,69.02
2023-04-10T16:04:24.719Z,67.84
2023-04-10T16:06:57.440Z,68.05
2023-04-10T16:09:30.267Z,67.13
2023-04-10T16:12:03.223Z,68.47
2023-04-10T16:14:37.328Z,68.30
2023-04-10T16:17:10.135Z,68.03
2023-04-10T16:19:42.849Z,67.09
2023-04-10T16:22:15.602Z,66.88
2023-04-10T16:24:48.595Z,65.12
2023-04-10T16:27:21.224Z,67.30
2023-04-10T16:29:55.490Z,66.38
2023-04-10T16:32:30.346Z,66.84
2023-04-10T16:35:04.489Z,67.72
2023-04-10T16:37:37.394Z,66.60
2023-04-10T16:40:12.801Z,67.31
2023-04-10T16:42:45.447Z,67.42
2023-04-10T16:45:20.164Z,68.05
2023-04-10T16:47:52.788Z,67.84
2023-04-10T16:50:25.415Z,68.11
2023-04-10T16:52:59.330Z,67.94
2023-04-10T16:55:32.244Z,67.11
2023-04-10T16:58:04.967Z,67.91
2023-04-10T17:00:39.179Z,67.31
2023-04-10T17:03:11.839Z,66.91
2023-04-10T17:05:44.679Z,66.79
2023-04-10T17:08:17.332Z,66.75
2023-04-10T17:10:50.283Z,66.87
2023-04-10T17:13:22.953Z,67.13
2023-04-10T17:15:57.020Z,66.98
2023-04-10T17:18:29.818Z,67.02
2023-04-10T17:21:02.532Z,66.96
2023-04-10T17:23:35.178Z,67.02
2023-04-10T17:26:08.174Z,67.13
2023-04-10T17:28:40.898Z,67.68
2023-04-10T17:31:15.472Z,67.66
2023-04-10T17:33:48.267Z,67.43
2023-04-10T17:36:21.019Z,67.49
2023-04-10T17:38:54.279Z,67.42
2023-04-10T17:41:27.308Z,67.55
2023-04-10T17:43:59.946Z,67.64
2023-04-10T17:46:34.090Z,67.58
2023-04-10T17:49:06.743Z,67.51
2023-04-10T17:51:40.786Z,67.98
2023-04-10T17:54:13.475Z,67.73
2023-04-10T17:56:46.263Z,67.40
2023-04-10T17:59:18.912Z,67.71
2023-04-10T18:01:53.380Z,67.52
2023-04-10T18:04:26.295Z,67.39
2023-04-10T18:06:59.018Z,67.52
2023-04-10T18:09:31.713Z,67.75
2023-04-10T18:12:04.485Z,67.85
2023-04-10T18:14:37.268Z,67.81
2023-04-10T18:17:11.376Z,68.65
2023-04-10T18:19:44.008Z,68.13
2023-04-10T18:22:16.768Z,68.41
2023-04-10T18:24:49.769Z,68.34
2023-04-10T18:27:22.502Z,68.63
2023-04-10T18:29:57.555Z,68.53
2023-04-10T18:32:31.582Z,68.32
2023-04-10T18:35:04.615Z,68.26
2023-04-10T18:37:37.483Z,68.52
2023-04-10T18:40:16.435Z,68.56
2023-04-10T18:42:49.757Z,68.50
2023-04-10T18:45:22.530Z,68.78
2023-04-10T18:47:56.752Z,68.98
2023-04-10T18:50:29.491Z,69.11
2023-04-10T18:53:02.193Z,68.98
2023-04-10T18:55:34.791Z,68.81
2023-04-10T18:58:07.452Z,68.87
2023-04-10T19:00:40.103Z,68.69
2023-04-10T19:03:14.358Z,69.04
2023-04-10T19:05:47.949Z,69.19
2023-04-10T19:08:20.664Z,69.14
2023-04-10T19:10:53.372Z,69.50
2023-04-10T19:13:26.124Z,69.28
2023-04-10T19:15:58.766Z,69.60
2023-04-10T19:18:33.056Z,69.88
2023-04-10T19:21:05.957Z,69.90
2023-04-10T19:23:38.629Z,70.03
2023-04-10T19:26:11.353Z,70.10
2023-04-10T19:28:44.169Z,70.16
2023-04-10T19:31:16.887Z,70.31
2023-04-10T19:33:51.313Z,70.20
2023-04-10T19:36:23.925Z,70.45
2023-04-10T19:38:57.532Z,70.75
2023-04-10T19:41:30.508Z,70.36
2023-04-10T19:44:03.222Z,70.56
2023-04-10T19:46:35.966Z,70.54
2023-04-10T19:49:10.125Z,70.91
2023-04-10T19:51:43.181Z,70.98
2023-04-10T19:54:15.892Z,71.00
2023-04-10T19:56:48.621Z,71.04
2023-04-10T19:59:21.265Z,70.86
2023-04-10T20:01:54.016Z,71.11
2023-04-10T20:04:28.392Z,71.23
2023-04-10T20:07:01.307Z,71.69
2023-04-10T20:09:34.311Z,71.18
2023-04-10T20:12:07.190Z,71.18
2023-04-10T20:14:39.875Z,71.46
2023-04-10T20:17:12.855Z,71.83
2023-04-10T20:19:47.147Z,72.30
2023-04-10T20:22:19.769Z,72.33
2023-04-10T20:24:52.575Z,72.11
2023-04-10T20:27:25.523Z,72.08
2023-04-10T20:29:58.259Z,72.16
2023-04-10T20:32:30.963Z,72.16
2023-04-10T20:35:05.400Z,72.32
2023-04-10T20:37:38.099Z,72.33
2023-04-10T20:40:11.108Z,72.77
2023-04-10T20:42:43.969Z,72.21
2023-04-10T20:45:16.769Z,71.79
2023-04-10T20:47:49.569Z,71.65
2023-04-10T20:50:23.724Z,72.11
2023-04-10T20:52:56.436Z,72.18
2023-04-10T20:55:29.102Z,72.33
2023-04-10T20:58:02.059Z,72.88
2023-04-10T21:00:35.259Z,72.06
2023-04-10T21:03:08.188Z,71.82
2023-04-10T21:05:42.673Z,71.95
2023-04-10T21:08:15.642Z,72.56
2023-04-10T21:10:51.414Z,72.36
2023-04-10T21:13:24.046Z,72.34
2023-04-10T21:15:56.700Z,71.97
2023-04-10T21:18:29.489Z,72.18
2023-04-10T21:21:03.595Z,72.60
2023-04-10T21:23:36.339Z,72.51
2023-04-10T21:26:09.047Z,71.63
2023-04-10T21:28:41.646Z,72.41
2023-04-10T21:31:14.452Z,72.75
2023-04-10T21:33:47.398Z,72.09
2023-04-10T21:36:21.846Z,72.95
2023-04-10T21:38:54.796Z,71.64
2023-04-10T21:41:27.811Z,72.33
2023-04-10T21:44:00.944Z,72.44
2023-04-10T21:46:33.816Z,72.24
2023-04-10T21:49:06.477Z,72.39
2023-04-10T21:51:41.398Z,72.30
2023-04-10T21:54:14.094Z,73.05
2023-04-10T21:56:46.822Z,72.22
2023-04-10T21:59:19.535Z,72.42
2023-04-10T22:01:52.542Z,72.60
2023-04-10T22:04:25.339Z,72.66
2023-04-10T22:06:59.489Z,72.46
2023-04-10T22:09:32.136Z,72.89
2023-04-10T22:12:04.929Z,73.13
2023-04-10T22:14:37.857Z,72.74
2023-04-10T22:17:11.045Z,72.44
2023-04-10T22:19:43.917Z,72.09
2023-04-10T22:22:19.291Z,72.15
2023-04-10T22:24:53.567Z,72.36
2023-04-10T22:27:26.285Z,72.01
2023-04-10T22:32:34.855Z,72.34
2023-04-10T22:35:08.461Z,72.44
2023-04-10T22:37:44.455Z,71.86
2023-04-10T22:40:17.188Z,72.63
2023-04-10T22:42:49.928Z,72.40
2023-04-10T22:45:22.825Z,71.17
2023-04-10T22:47:55.688Z,72.41
2023-04-10T22:50:28.364Z,72.49
2023-04-10T22:53:02.481Z,72.91
2023-04-10T22:55:35.369Z,72.20
2023-04-10T22:58:08.463Z,72.35
2023-04-10T23:00:41.094Z,72.81
2023-04-10T23:03:13.811Z,72.45
2023-04-10T23:05:47.043Z,72.46
2023-04-10T23:08:21.145Z,71.96
2023-04-10T23:10:53.790Z,71.91
2023-04-10T23:13:26.745Z,71.96
2023-04-10T23:15:59.514Z,71.63
2023-04-10T23:18:32.223Z,71.92
2023-04-10T23:21:05.638Z,72.37
2023-04-10T23:23:39.774Z,72.53
2023-04-10T23:26:12.540Z,72.61
2023-04-10T23:28:45.498Z,73.03
2023-04-10T23:31:18.429Z,72.03
2023-04-10T23:33:51.149Z,72.82
2023-04-10T23:36:23.789Z,72.80
2023-04-10T23:38:57.857Z,72.69
2023-04-10T23:41:30.537Z,72.99
2023-04-10T23:44:03.441Z,72.66
2023-04-10T23:46:36.261Z,72.74
2023-04-10T23:49:09.246Z,72.51
2023-04-10T23:51:41.957Z,72.37
2023-04-10T23:54:16.094Z,72.32
2023-04-10T23:56:48.776Z,72.59
2023-04-10T23:59:21.586Z,72.67
